Time;durP1;ratioP1;P1;durP2;ratioP2;P2;SDS_P1;SDS_P2;PMS_P1;PMS_P2;Temp;Humidity;BMP_temperature;BMP_pressure;BME280_temperature;BME280_humidity;BME280_pressure;Samples;Min_cycle;Max_cycle;Signal;HPM_P1;HPM_P2
2023/02/02 00:00:31;;;;;;;0.00;0.00;;;7.20;99.90;;;;;;5064069;28;20247;-79
2023/02/02 00:02:56;;;;;;;0.10;0.10;;;7.20;99.90;;;;;;5063745;28;20214;-79
2023/02/02 00:05:22;;;;;;;0.10;0.10;;;7.20;99.90;;;;;;5061316;28;20182;-79
2023/02/02 00:07:47;;;;;;;0.10;0.10;;;7.20;99.90;;;;;;5061466;28;20270;-79
2023/02/02 00:10:13;;;;;;;0.10;0.10;;;7.20;99.90;;;;;;5062004;28;20258;-79
2023/02/02 00:12:38;;;;;;;0.10;0.10;;;7.30;99.90;;;;;;5062444;28;20666;-78
2023/02/02 00:15:04;;;;;;;0.10;0.10;;;7.30;99.90;;;;;;5063275;28;20188;-79
2023/02/02 00:17:30;;;;;;;0.10;0.10;;;7.30;99.90;;;;;;5062882;28;20256;-79
2023/02/02 00:19:55;;;;;;;0.10;0.10;;;7.30;99.90;;;;;;5064095;28;20665;-80
2023/02/02 00:22:21;;;;;;;0.10;0.10;;;7.20;99.90;;;;;;5063109;28;20203;-79
2023/02/02 00:24:46;;;;;;;0.10;0.10;;;7.10;99.90;;;;;;5062947;28;20642;-79
2023/02/02 00:27:12;;;;;;;0.07;0.07;;;7.10;99.90;;;;;;5063574;28;20186;-79
2023/02/02 00:29:38;;;;;;;0.10;0.10;;;7.10;99.90;;;;;;5063962;28;20198;-78
2023/02/02 00:32:04;;;;;;;0.10;0.10;;;7.20;99.90;;;;;;5063434;28;20300;-79
2023/02/02 00:34:30;;;;;;;0.10;0.10;;;7.30;99.90;;;;;;5065692;28;20273;-79
2023/02/02 00:36:55;;;;;;;0.10;0.10;;;7.40;99.90;;;;;;5064191;28;20193;-79
2023/02/02 00:39:24;;;;;;;0.10;0.10;;;7.40;99.90;;;;;;5063806;28;20194;-79
2023/02/02 00:41:50;;;;;;;0.10;0.10;;;7.40;99.90;;;;;;5065638;28;20203;-79
2023/02/02 00:47:00;;;;;;;0.10;0.10;;;7.40;99.90;;;;;;5063520;28;20687;-79
2023/02/02 00:49:26;;;;;;;0.10;0.10;;;7.40;99.90;;;;;;5062791;28;20184;-79
2023/02/02 00:51:51;;;;;;;0.10;0.10;;;7.40;99.90;;;;;;5064522;28;20261;-79
2023/02/02 00:54:17;;;;;;;0.10;0.10;;;7.40;99.90;;;;;;5060628;28;20196;-79
2023/02/02 00:56:43;;;;;;;0.10;0.10;;;7.40;99.90;;;;;;5060164;28;21064;-79
2023/02/02 00:59:08;;;;;;;0.10;0.10;;;7.40;99.90;;;;;;5064631;28;20706;-79
2023/02/02 01:01:34;;;;;;;0.10;0.10;;;7.40;99.90;;;;;;5059845;28;21751;-79
2023/02/02 01:04:00;;;;;;;0.10;0.10;;;7.40;99.90;;;;;;5060997;28;20206;-79
2023/02/02 01:06:26;;;;;;;0.10;0.10;;;7.40;99.90;;;;;;5059822;28;20182;-79
2023/02/02 01:08:51;;;;;;;0.10;0.10;;;7.50;99.90;;;;;;5062909;28;20280;-79
2023/02/02 01:11:17;;;;;;;0.10;0.10;;;7.50;99.90;;;;;;5060182;28;20209;-79
2023/02/02 01:13:43;;;;;;;0.10;0.10;;;7.50;99.90;;;;;;5062183;28;20287;-79
2023/02/02 01:16:10;;;;;;;0.00;0.00;;;7.50;99.90;;;;;;5062148;28;20196;-79
2023/02/02 01:18:36;;;;;;;0.93;0.93;;;7.50;99.90;;;;;;5059293;28;20658;-78
2023/02/02 01:21:05;;;;;;;0.10;0.10;;;7.50;99.90;;;;;;5064657;28;20208;-79
2023/02/02 01:23:32;;;;;;;0.10;0.10;;;7.50;99.90;;;;;;5063957;28;20215;-79
2023/02/02 01:25:59;;;;;;;0.00;0.00;;;7.50;99.90;;;;;;5065855;28;20178;-79
2023/02/02 01:28:26;;;;;;;0.10;0.10;;;7.50;99.90;;;;;;5066363;28;20185;-78
2023/02/02 01:30:52;;;;;;;0.10;0.10;;;7.50;99.90;;;;;;5067692;28;20233;-79
2023/02/02 01:33:18;;;;;;;0.10;0.10;;;7.50;99.90;;;;;;5066571;28;20220;-79
2023/02/02 01:35:49;;;;;;;0.10;0.10;;;7.50;99.90;;;;;;5068276;28;20190;-79
2023/02/02 01:38:15;;;;;;;0.10;0.10;;;7.50;99.90;;;;;;5075477;28;20209;-79
2023/02/02 01:40:48;;;;;;;0.10;0.10;;;7.40;99.90;;;;;;5068164;28;20210;-79
2023/02/02 01:43:48;;;;;;;0.10;0.10;;;7.40;99.90;;;;;;5066195;28;20225;-79
2023/02/02 01:46:15;;;;;;;0.10;0.10;;;7.40;99.90;;;;;;5065959;28;20181;-78
2023/02/02 01:48:53;;;;;;;0.10;0.10;;;7.40;99.90;;;;;;5066658;28;20234;-79
2023/02/02 01:51:22;;;;;;;0.10;0.10;;;7.40;99.90;;;;;;5068709;28;20205;-77
2023/02/02 01:53:51;;;;;;;0.10;0.10;;;7.40;99.90;;;;;;5068200;28;20177;-79
2023/02/02 01:56:25;;;;;;;0.10;0.10;;;7.40;99.90;;;;;;5067174;28;20190;-79
2023/02/02 01:58:51;;;;;;;0.10;0.10;;;7.40;99.90;;;;;;5066644;28;20182;-79
2023/02/02 02:01:17;;;;;;;0.07;0.07;;;7.30;99.90;;;;;;5063901;28;20330;-79
2023/02/02 02:03:42;;;;;;;0.10;0.10;;;7.30;99.90;;;;;;5067107;28;20296;-78
2023/02/02 02:06:18;;;;;;;0.10;0.10;;;7.40;99.90;;;;;;5065312;28;20178;-79
2023/02/02 02:08:59;;;;;;;0.10;0.10;;;7.40;99.90;;;;;;5064415;28;20186;-79
2023/02/02 02:11:25;;;;;;;0.10;0.10;;;7.40;99.90;;;;;;5064189;28;20233;-79
2023/02/02 02:16:57;;;;;;;0.10;0.10;;;7.50;99.90;;;;;;5063687;28;20244;-79
2023/02/02 02:28:46;;;;;;;0.10;0.10;;;7.40;99.90;;;;;;5066260;28;20184;-82
2023/02/02 02:31:30;;;;;;;0.10;0.10;;;7.40;99.90;;;;;;5064833;28;20205;-79
2023/02/02 02:34:13;;;;;;;0.10;0.10;;;7.40;99.90;;;;;;5065361;28;20188;-79
2023/02/02 02:36:46;;;;;;;0.10;0.10;;;7.30;99.90;;;;;;5064392;28;20177;-79
2023/02/02 02:39:21;;;;;;;0.10;0.10;;;7.30;99.90;;;;;;5066063;28;20232;-79
2023/02/02 02:41:51;;;;;;;0.10;0.10;;;7.30;99.90;;;;;;5063325;28;20965;-79
2023/02/02 02:44:19;;;;;;;0.10;0.10;;;7.20;99.90;;;;;;5063332;28;20182;-79
2023/02/02 02:46:45;;;;;;;0.10;0.10;;;7.20;99.90;;;;;;5064724;28;20182;-79
2023/02/02 02:49:12;;;;;;;0.10;0.10;;;7.20;99.90;;;;;;5062495;28;20615;-79
2023/02/02 02:51:51;;;;;;;0.10;0.10;;;7.20;99.90;;;;;;5073158;28;20203;-79
2023/02/02 02:54:25;;;;;;;0.10;0.10;;;7.20;99.90;;;;;;5063296;28;20228;-79
2023/02/02 02:57:17;;;;;;;0.10;0.10;;;7.10;99.90;;;;;;5063619;28;20253;-79
2023/02/02 03:00:20;;;;;;;0.10;0.10;;;7.10;99.90;;;;;;5064186;28;20202;-79
2023/02/02 03:02:55;;;;;;;0.10;0.10;;;7.10;99.90;;;;;;5064939;28;20212;-78
2023/02/02 03:05:42;;;;;;;0.10;0.10;;;7.10;99.90;;;;;;5064800;28;21109;-78
2023/02/02 03:08:23;;;;;;;0.10;0.10;;;7.10;99.90;;;;;;5063318;28;20525;-79
2023/02/02 03:10:50;;;;;;;0.10;0.10;;;7.10;99.90;;;;;;5061822;28;20305;-79
2023/02/02 03:13:15;;;;;;;0.10;0.10;;;7.20;99.90;;;;;;5064854;28;20246;-79
2023/02/02 03:15:45;;;;;;;0.10;0.10;;;7.20;99.90;;;;;;5062751;28;20187;-79
2023/02/02 03:18:13;;;;;;;0.10;0.10;;;7.20;99.90;;;;;;5064366;28;20201;-79
2023/02/02 03:20:39;;;;;;;0.10;0.10;;;7.20;99.90;;;;;;5063792;28;20206;-78
2023/02/02 03:23:04;;;;;;;0.10;0.10;;;7.20;99.90;;;;;;5063340;28;20264;-79
2023/02/02 03:25:30;;;;;;;0.10;0.10;;;7.20;99.90;;;;;;5063813;28;20213;-77
2023/02/02 03:27:57;;;;;;;0.10;0.10;;;7.20;99.90;;;;;;5063119;28;20184;-78
2023/02/02 03:30:23;;;;;;;0.10;0.10;;;7.20;99.90;;;;;;5062056;28;20206;-79
2023/02/02 03:32:50;;;;;;;0.10;0.10;;;7.20;99.90;;;;;;5065547;28;20192;-78
2023/02/02 03:35:15;;;;;;;0.10;0.10;;;7.30;99.90;;;;;;5065823;28;20198;-78
2023/02/02 03:37:41;;;;;;;0.10;0.10;;;7.20;99.90;;;;;;5066200;28;20700;-78
2023/02/02 03:40:07;;;;;;;0.10;0.10;;;7.20;99.90;;;;;;5061367;28;20219;-78
2023/02/02 03:42:32;;;;;;;0.10;0.10;;;7.20;99.90;;;;;;5062731;28;20210;-79
2023/02/02 03:44:58;;;;;;;0.10;0.10;;;7.20;99.90;;;;;;5063688;28;20722;-79
2023/02/02 03:47:27;;;;;;;0.10;0.10;;;7.20;99.90;;;;;;5065238;28;20186;-78
2023/02/02 03:49:53;;;;;;;0.10;0.10;;;7.20;99.90;;;;;;5061756;28;20215;-79
2023/02/02 03:52:18;;;;;;;0.10;0.10;;;7.10;99.90;;;;;;5064141;28;20208;-79
2023/02/02 03:54:44;;;;;;;0.10;0.10;;;7.20;99.90;;;;;;5062786;28;20195;-79
2023/02/02 03:57:09;;;;;;;0.10;0.10;;;7.20;99.90;;;;;;5064821;28;20203;-78
2023/02/02 03:59:35;;;;;;;0.10;0.10;;;7.30;99.90;;;;;;5065547;28;20261;-79
2023/02/02 04:02:00;;;;;;;0.10;0.10;;;7.30;99.90;;;;;;5063363;28;20302;-79
2023/02/02 04:04:26;;;;;;;0.10;0.10;;;7.30;99.90;;;;;;5063568;28;20190;-78
2023/02/02 04:06:52;;;;;;;0.10;0.10;;;7.40;99.90;;;;;;5065370;28;20309;-78
2023/02/02 04:09:17;;;;;;;0.10;0.10;;;7.40;99.90;;;;;;5063013;28;20789;-79
2023/02/02 04:11:43;;;;;;;0.10;0.10;;;7.40;99.90;;;;;;5065423;28;20272;-78
2023/02/02 04:14:09;;;;;;;0.10;0.10;;;7.40;99.90;;;;;;5064753;28;20189;-78
2023/02/02 04:16:36;;;;;;;0.10;0.10;;;7.30;99.90;;;;;;5063983;28;20549;-78
2023/02/02 04:19:02;;;;;;;0.10;0.10;;;7.30;99.90;;;;;;5064565;28;20185;-78
2023/02/02 04:21:28;;;;;;;0.10;0.10;;;7.30;99.90;;;;;;5063929;28;20232;-78
2023/02/02 04:23:54;;;;;;;0.10;0.10;;;7.30;99.90;;;;;;5061934;28;20679;-78
2023/02/02 04:26:20;;;;;;;0.10;0.10;;;7.30;99.90;;;;;;5063048;28;20188;-78
2023/02/02 04:28:45;;;;;;;0.10;0.10;;;7.30;99.90;;;;;;5063191;28;20271;-79
2023/02/02 04:31:11;;;;;;;0.10;0.10;;;7.30;99.90;;;;;;5063892;28;20214;-79
2023/02/02 04:33:36;;;;;;;0.10;0.10;;;7.30;99.90;;;;;;5063272;28;20178;-79
2023/02/02 04:36:03;;;;;;;0.10;0.10;;;7.30;99.90;;;;;;5059747;28;20200;-78
2023/02/02 04:38:28;;;;;;;0.10;0.10;;;7.30;99.90;;;;;;5061491;28;20494;-79
2023/02/02 04:40:54;;;;;;;0.10;0.10;;;7.30;99.90;;;;;;5061396;28;20307;-79
2023/02/02 04:43:19;;;;;;;0.10;0.10;;;7.20;99.90;;;;;;5063702;28;20221;-78
2023/02/02 04:45:44;;;;;;;0.10;0.10;;;7.30;99.90;;;;;;5063482;28;20189;-78
2023/02/02 04:48:10;;;;;;;0.10;0.10;;;7.30;99.90;;;;;;5062463;28;20194;-79
2023/02/02 04:50:36;;;;;;;0.10;0.10;;;7.30;99.90;;;;;;5061576;28;20591;-78
2023/02/02 04:53:03;;;;;;;0.10;0.10;;;7.30;99.90;;;;;;5061803;28;20666;-78
2023/02/02 04:55:28;;;;;;;0.10;0.10;;;7.30;99.90;;;;;;5062274;28;20192;-79
2023/02/02 04:57:54;;;;;;;0.10;0.10;;;7.30;99.90;;;;;;5063060;28;20621;-79
2023/02/02 05:00:19;;;;;;;0.10;0.10;;;7.30;99.90;;;;;;5064869;28;20225;-79
2023/02/02 05:02:45;;;;;;;0.10;0.10;;;7.30;99.90;;;;;;5066516;28;20200;-79
2023/02/02 05:05:12;;;;;;;0.10;0.10;;;7.30;99.90;;;;;;5064708;28;20201;-78
2023/02/02 05:07:39;;;;;;;0.10;0.10;;;7.30;99.90;;;;;;5064247;28;20307;-79
2023/02/02 05:10:06;;;;;;;0.10;0.10;;;7.30;99.90;;;;;;5065788;28;20210;-80
2023/02/02 05:12:31;;;;;;;0.10;0.10;;;7.30;99.90;;;;;;5065845;28;20185;-78
2023/02/02 05:14:59;;;;;;;0.10;0.10;;;7.40;99.90;;;;;;5065021;28;20334;-79
2023/02/02 05:17:26;;;;;;;0.10;0.10;;;7.40;99.90;;;;;;5066817;28;20278;-79
2023/02/02 05:19:51;;;;;;;0.10;0.10;;;7.40;99.90;;;;;;5065048;28;20208;-79
2023/02/02 05:22:17;;;;;;;0.10;0.10;;;7.40;99.90;;;;;;5064760;28;20216;-79
2023/02/02 05:24:42;;;;;;;0.03;0.03;;;7.40;99.90;;;;;;5065884;28;20192;-79
2023/02/02 05:27:08;;;;;;;0.10;0.10;;;7.40;99.90;;;;;;5065436;28;20259;-79
2023/02/02 05:29:33;;;;;;;0.10;0.10;;;7.40;99.90;;;;;;5063510;28;20178;-78
2023/02/02 05:31:59;;;;;;;0.07;0.07;;;7.40;99.90;;;;;;5062916;28;20202;-78
2023/02/02 05:34:25;;;;;;;0.10;0.10;;;7.40;99.90;;;;;;5064954;28;20188;-78
2023/02/02 05:36:51;;;;;;;0.10;0.10;;;7.40;99.90;;;;;;5063705;28;20254;-79
2023/02/02 05:39:16;;;;;;;0.10;0.10;;;7.40;99.90;;;;;;5065052;28;20277;-79
2023/02/02 05:41:42;;;;;;;0.10;0.10;;;7.40;99.90;;;;;;5064926;28;20180;-79
2023/02/02 05:44:11;;;;;;;0.10;0.10;;;7.40;99.90;;;;;;5066983;28;20288;-79
2023/02/02 05:46:36;;;;;;;0.10;0.10;;;7.40;99.90;;;;;;5062951;28;20179;-79
2023/02/02 05:49:03;;;;;;;0.10;0.10;;;7.40;99.90;;;;;;5067387;28;20189;-79
2023/02/02 05:51:46;;;;;;;0.10;0.10;;;7.40;99.90;;;;;;5065057;28;20216;-78
2023/02/02 05:54:12;;;;;;;0.10;0.10;;;7.30;99.90;;;;;;5066790;28;20258;-79
2023/02/02 05:56:37;;;;;;;0.10;0.10;;;7.30;99.90;;;;;;5064344;28;20644;-79
2023/02/02 05:59:06;;;;;;;0.10;0.10;;;7.30;99.90;;;;;;5065559;28;20182;-78
2023/02/02 06:01:32;;;;;;;0.10;0.10;;;7.30;99.90;;;;;;5062790;28;20208;-77
2023/02/02 06:03:57;;;;;;;0.10;0.10;;;7.30;99.90;;;;;;5067751;28;20262;-78
2023/02/02 06:06:23;;;;;;;0.10;0.10;;;7.30;99.90;;;;;;5064103;28;20745;-78
2023/02/02 06:08:49;;;;;;;0.10;0.10;;;7.30;99.90;;;;;;5066567;28;20194;-79
2023/02/02 06:11:16;;;;;;;0.10;0.10;;;7.30;99.90;;;;;;5065455;28;20204;-79
2023/02/02 06:13:42;;;;;;;0.10;0.10;;;7.20;99.90;;;;;;5063035;28;20201;-78
2023/02/02 06:16:08;;;;;;;0.10;0.10;;;7.20;99.90;;;;;;5065036;28;20281;-79
2023/02/02 06:18:35;;;;;;;0.10;0.10;;;7.10;99.90;;;;;;5066283;28;20196;-79
2023/02/02 06:21:03;;;;;;;0.10;0.10;;;7.10;99.90;;;;;;5064826;28;20260;-79
2023/02/02 06:23:29;;;;;;;0.10;0.10;;;7.10;99.90;;;;;;5064452;28;20212;-79
2023/02/02 06:25:54;;;;;;;0.10;0.10;;;7.10;99.90;;;;;;5066496;28;20181;-78
2023/02/02 06:28:20;;;;;;;0.10;0.10;;;7.10;99.90;;;;;;5065897;28;20181;-79
2023/02/02 06:30:45;;;;;;;0.10;0.10;;;7.10;99.90;;;;;;5063171;28;20205;-79
2023/02/02 06:33:11;;;;;;;0.10;0.10;;;7.10;99.90;;;;;;5062086;28;20186;-79
2023/02/02 06:35:37;;;;;;;0.10;0.10;;;7.10;99.90;;;;;;5058166;28;20200;-79
2023/02/02 06:38:02;;;;;;;0.10;0.10;;;7.10;99.90;;;;;;5052524;28;20640;-79
2023/02/02 06:40:28;;;;;;;0.10;0.10;;;7.10;99.90;;;;;;5057253;28;20217;-80
2023/02/02 06:42:58;;;;;;;0.10;0.10;;;7.10;99.90;;;;;;5060524;28;20511;-80
2023/02/02 06:45:24;;;;;;;0.10;0.10;;;7.10;99.90;;;;;;5058410;28;20180;-78
2023/02/02 06:47:51;;;;;;;0.10;0.10;;;7.10;99.90;;;;;;5058789;28;20859;-79
2023/02/02 06:50:17;;;;;;;0.10;0.10;;;7.20;99.90;;;;;;5060417;28;20619;-80
2023/02/02 06:52:52;;;;;;;0.10;0.10;;;7.10;99.90;;;;;;5063893;28;20185;-80
2023/02/02 06:55:18;;;;;;;0.10;0.10;;;7.20;99.90;;;;;;5063000;28;20195;-78
2023/02/02 06:57:44;;;;;;;0.10;0.10;;;7.20;99.90;;;;;;5056646;28;20213;-80
2023/02/02 07:00:10;;;;;;;0.10;0.10;;;7.20;99.90;;;;;;5062618;28;20225;-80
2023/02/02 07:02:36;;;;;;;0.10;0.10;;;7.20;99.90;;;;;;5059915;28;20569;-78
2023/02/02 07:05:02;;;;;;;0.10;0.10;;;7.20;99.90;;;;;;5059138;28;20182;-80
2023/02/02 07:07:33;;;;;;;0.10;0.10;;;7.20;99.90;;;;;;5066117;28;20572;-79
2023/02/02 07:09:58;;;;;;;0.10;0.10;;;7.20;99.90;;;;;;5059584;28;20201;-80
2023/02/02 07:12:25;;;;;;;0.10;0.10;;;7.20;99.90;;;;;;5061690;28;20557;-80
2023/02/02 07:14:51;;;;;;;0.10;0.10;;;7.20;99.90;;;;;;5062730;28;20192;-79
2023/02/02 07:17:17;;;;;;;0.10;0.10;;;7.20;99.90;;;;;;5061574;28;20190;-80
2023/02/02 07:19:42;;;;;;;0.10;0.10;;;7.20;99.90;;;;;;5062556;28;20354;-80
2023/02/02 07:22:08;;;;;;;0.10;0.10;;;7.20;99.90;;;;;;5062921;28;20249;-79
2023/02/02 07:24:33;;;;;;;0.10;0.10;;;7.20;99.90;;;;;;5052888;28;20187;-81
2023/02/02 07:26:59;;;;;;;0.10;0.10;;;7.20;99.90;;;;;;5058814;28;20192;-81
2023/02/02 07:29:24;;;;;;;0.10;0.10;;;7.20;99.90;;;;;;5062982;28;20181;-80
2023/02/02 07:31:50;;;;;;;0.10;0.10;;;7.30;99.90;;;;;;5059959;28;21072;-80
2023/02/02 07:34:15;;;;;;;0.10;0.10;;;7.30;99.90;;;;;;5062556;28;20191;-80
2023/02/02 07:36:41;;;;;;;0.10;0.10;;;7.30;99.90;;;;;;5074746;28;20217;-80
2023/02/02 07:39:07;;;;;;;0.10;0.10;;;7.40;99.90;;;;;;5062810;28;20181;-80
2023/02/02 07:41:34;;;;;;;0.10;0.10;;;7.40;99.90;;;;;;5060930;28;20290;-81
2023/02/02 07:44:00;;;;;;;0.10;0.10;;;7.40;99.90;;;;;;5058695;28;20324;-78
2023/02/02 07:46:26;;;;;;;0.10;0.10;;;7.40;99.90;;;;;;5059413;28;20261;-81
2023/02/02 07:48:54;;;;;;;0.10;0.10;;;7.50;99.90;;;;;;5058331;28;20245;-80
2023/02/02 07:51:20;;;;;;;0.10;0.10;;;7.50;99.90;;;;;;5064326;28;20248;-80
2023/02/02 07:53:48;;;;;;;0.10;0.10;;;7.50;99.90;;;;;;5063313;28;20676;-80
2023/02/02 07:56:22;;;;;;;0.10;0.10;;;7.50;99.90;;;;;;5059042;28;20266;-80
2023/02/02 07:58:50;;;;;;;0.10;0.10;;;7.50;99.90;;;;;;5062008;28;20698;-81
2023/02/02 08:01:15;;;;;;;0.10;0.10;;;7.50;99.90;;;;;;5058702;28;20227;-79
2023/02/02 08:03:42;;;;;;;0.10;0.10;;;7.60;99.90;;;;;;5063176;28;20291;-79
2023/02/02 08:06:12;;;;;;;0.10;0.10;;;7.60;99.90;;;;;;5063510;28;20202;-80
2023/02/02 08:08:38;;;;;;;0.10;0.10;;;7.60;99.90;;;;;;5060467;28;20209;-80
2023/02/02 08:11:04;;;;;;;0.10;0.10;;;7.50;99.90;;;;;;5060120;28;20778;-80
2023/02/02 08:13:29;;;;;;;0.10;0.10;;;7.50;99.90;;;;;;5058321;28;20206;-80
2023/02/02 08:15:58;;;;;;;0.10;0.10;;;7.60;99.90;;;;;;5063243;28;20206;-80
2023/02/02 08:18:24;;;;;;;0.10;0.10;;;7.70;99.90;;;;;;5061140;28;20202;-80
2023/02/02 08:20:51;;;;;;;0.10;0.10;;;7.70;99.90;;;;;;5058050;28;20583;-80
2023/02/02 08:23:22;;;;;;;0.10;0.10;;;7.70;99.90;;;;;;5054477;28;20224;-80
2023/02/02 08:25:50;;;;;;;0.10;0.10;;;7.70;99.90;;;;;;5058831;28;20184;-80
2023/02/02 08:28:17;;;;;;;0.10;0.10;;;7.70;99.90;;;;;;5058463;28;20219;-79
2023/02/02 08:30:43;;;;;;;0.10;0.10;;;7.80;99.90;;;;;;5058522;28;20203;-81
2023/02/02 08:33:08;;;;;;;0.10;0.10;;;7.80;99.90;;;;;;5055931;28;20196;-80
2023/02/02 08:35:34;;;;;;;0.10;0.10;;;7.80;99.90;;;;;;5063009;28;20492;-80
2023/02/02 08:38:04;;;;;;;0.10;0.10;;;7.90;99.90;;;;;;5061145;28;20731;-80
2023/02/02 08:40:29;;;;;;;0.10;0.10;;;7.90;99.90;;;;;;5064316;28;20702;-80
2023/02/02 08:42:55;;;;;;;0.10;0.10;;;7.90;99.90;;;;;;5062314;28;20280;-80
2023/02/02 08:45:21;;;;;;;0.10;0.10;;;8.00;99.90;;;;;;5061603;28;20183;-80
2023/02/02 08:47:46;;;;;;;0.10;0.10;;;8.00;99.90;;;;;;5063244;28;20184;-79
2023/02/02 08:50:12;;;;;;;0.10;0.10;;;8.10;99.90;;;;;;5060376;28;20713;-80
2023/02/02 08:52:37;;;;;;;0.10;0.10;;;8.10;99.90;;;;;;5061689;28;20186;-79
2023/02/02 08:55:03;;;;;;;0.10;0.10;;;8.10;99.90;;;;;;5065282;28;20207;-80
2023/02/02 08:57:31;;;;;;;0.10;0.10;;;8.10;99.90;;;;;;5060405;28;20185;-79
2023/02/02 08:59:57;;;;;;;0.10;0.10;;;8.10;99.90;;;;;;5071725;28;20775;-80
2023/02/02 09:02:23;;;;;;;0.10;0.10;;;8.20;99.90;;;;;;5063257;28;20206;-79
2023/02/02 09:04:48;;;;;;;0.10;0.10;;;8.20;99.90;;;;;;5064921;28;20650;-79
2023/02/02 09:07:14;;;;;;;0.00;0.00;;;8.30;99.90;;;;;;5063721;28;20185;-80
2023/02/02 09:09:39;;;;;;;0.10;0.10;;;8.30;99.90;;;;;;5068057;28;20690;-79
2023/02/02 09:12:05;;;;;;;0.10;0.10;;;8.40;99.90;;;;;;5067380;28;20545;-80
2023/02/02 09:14:30;;;;;;;0.10;0.10;;;8.40;99.90;;;;;;5063305;28;20266;-79
2023/02/02 09:16:56;;;;;;;0.00;0.00;;;8.40;99.90;;;;;;5066384;28;20192;-79
2023/02/02 09:19:21;;;;;;;0.10;0.10;;;8.50;99.90;;;;;;5064385;28;20299;-80
2023/02/02 09:21:50;;;;;;;0.10;0.10;;;8.60;99.90;;;;;;5067344;28;20736;-79
2023/02/02 09:24:16;;;;;;;0.10;0.10;;;8.60;99.90;;;;;;5064118;28;20280;-81
2023/02/02 09:26:43;;;;;;;0.10;0.10;;;8.60;99.90;;;;;;5064856;28;20185;-80
2023/02/02 09:29:16;;;;;;;0.10;0.10;;;8.60;99.90;;;;;;5065797;28;20182;-81
2023/02/02 09:31:42;;;;;;;0.10;0.10;;;8.70;99.90;;;;;;5065821;28;20569;-81
2023/02/02 09:34:10;;;;;;;0.10;0.10;;;8.70;99.90;;;;;;5068966;28;20173;-80
2023/02/02 09:36:37;;;;;;;0.10;0.10;;;8.70;99.90;;;;;;5065435;28;20189;-80
2023/02/02 09:39:04;;;;;;;0.10;0.10;;;8.70;99.90;;;;;;5068530;28;20188;-81
2023/02/02 09:41:35;;;;;;;0.10;0.10;;;8.80;99.90;;;;;;5066340;28;20220;-81
2023/02/02 09:44:03;;;;;;;0.10;0.10;;;8.70;99.90;;;;;;5063864;28;20212;-82
2023/02/02 09:46:32;;;;;;;0.10;0.10;;;8.70;99.90;;;;;;5066654;28;20180;-82
2023/02/02 09:49:05;;;;;;;0.10;0.10;;;8.70;99.90;;;;;;5067859;28;20211;-82
2023/02/02 09:51:45;;;;;;;0.10;0.10;;;8.80;99.90;;;;;;5067365;28;20202;-80
2023/02/02 09:54:19;;;;;;;0.10;0.10;;;8.80;99.90;;;;;;5067171;28;20200;-81
2023/02/02 09:56:50;;;;;;;0.10;0.10;;;8.80;99.90;;;;;;5068828;28;20596;-82
2023/02/02 09:59:42;;;;;;;0.10;0.10;;;8.80;99.90;;;;;;5067627;28;20625;-82
2023/02/02 10:02:26;;;;;;;0.10;0.10;;;8.80;99.90;;;;;;5062352;28;20239;-82
2023/02/02 10:04:58;;;;;;;0.10;0.10;;;8.80;99.90;;;;;;5056659;28;20196;-78
2023/02/02 10:07:34;;;;;;;0.10;0.10;;;8.80;99.90;;;;;;5059633;28;20260;-80
2023/02/02 10:10:13;;;;;;;0.10;0.10;;;8.80;99.90;;;;;;5061425;28;20219;-79
2023/02/02 10:13:05;;;;;;;0.10;0.10;;;8.80;99.90;;;;;;5060173;28;20191;-79
2023/02/02 10:16:00;;;;;;;0.10;0.10;;;8.70;99.90;;;;;;5059365;28;20193;-78
2023/02/02 10:18:35;;;;;;;0.10;0.10;;;8.80;99.90;;;;;;5058847;28;20215;-80
2023/02/02 10:21:25;;;;;;;0.10;0.10;;;8.80;99.90;;;;;;5060215;28;20683;-79
2023/02/02 10:23:51;;;;;;;0.10;0.10;;;8.80;99.90;;;;;;5059414;28;20306;-80
2023/02/02 10:26:26;;;;;;;0.10;0.10;;;8.80;99.90;;;;;;5059699;28;20195;-80
2023/02/02 10:28:54;;;;;;;0.10;0.10;;;8.70;99.90;;;;;;5059219;28;20636;-79
2023/02/02 10:31:35;;;;;;;0.10;0.10;;;8.70;99.90;;;;;;5060321;28;20299;-80
2023/02/02 10:34:13;;;;;;;0.10;0.10;;;8.80;99.90;;;;;;5058235;28;20193;-80
2023/02/02 10:37:19;;;;;;;0.10;0.10;;;8.80;99.90;;;;;;5060633;28;20330;-80
2023/02/02 10:40:13;;;;;;;0.10;0.10;;;8.70;99.90;;;;;;5061873;28;20217;-82
2023/02/02 10:45:50;;;;;;;0.10;0.10;;;8.80;99.90;;;;;;5058912;28;20187;-82
2023/02/02 10:48:20;;;;;;;0.10;0.10;;;8.80;99.90;;;;;;5063460;28;21118;-84
2023/02/02 10:50:53;;;;;;;0.10;0.10;;;8.80;99.90;;;;;;5060159;28;20207;-82
2023/02/02 10:53:19;;;;;;;0.10;0.10;;;8.80;99.90;;;;;;5062470;28;20186;-81
2023/02/02 10:56:05;;;;;;;0.10;0.10;;;8.70;99.90;;;;;;5056584;28;20185;-79
2023/02/02 10:58:50;;;;;;;0.10;0.10;;;8.70;99.90;;;;;;5069290;28;20197;-79
2023/02/02 11:01:16;;;;;;;0.10;0.10;;;8.80;99.90;;;;;;5059007;28;20364;-80
2023/02/02 11:03:43;;;;;;;0.10;0.10;;;8.80;99.90;;;;;;5057069;28;20292;-80
2023/02/02 11:08:59;;;;;;;0.10;0.10;;;8.90;99.90;;;;;;5060731;28;20195;-80
2023/02/02 11:11:41;;;;;;;0.10;0.10;;;9.00;99.90;;;;;;5059434;28;20205;-79
2023/02/02 11:14:06;;;;;;;0.10;0.10;;;9.00;99.90;;;;;;5056484;28;20247;-80
2023/02/02 11:16:37;;;;;;;0.10;0.10;;;9.00;99.90;;;;;;5059328;28;20198;-80
2023/02/02 11:19:21;;;;;;;0.10;0.10;;;9.00;99.90;;;;;;5060789;28;20208;-79
2023/02/02 11:21:50;;;;;;;0.00;0.00;;;9.00;99.90;;;;;;5058236;28;20188;-79
2023/02/02 11:24:15;;;;;;;0.10;0.10;;;9.10;99.90;;;;;;5061903;28;20206;-80
2023/02/02 11:26:53;;;;;;;0.10;0.10;;;9.10;99.90;;;;;;5064641;28;20189;-79
2023/02/02 11:29:28;;;;;;;0.10;0.10;;;9.10;99.90;;;;;;5062136;28;20662;-80
2023/02/02 11:31:54;;;;;;;0.10;0.10;;;9.10;99.90;;;;;;5058827;28;20590;-80
2023/02/02 11:34:23;;;;;;;0.10;0.10;;;9.20;99.90;;;;;;5059509;28;20191;-80
2023/02/02 11:37:20;;;;;;;0.03;0.03;;;9.20;99.90;;;;;;5065141;28;20187;-79
2023/02/02 11:39:46;;;;;;;0.10;0.10;;;9.30;99.90;;;;;;5053872;28;20209;-79
2023/02/02 11:42:14;;;;;;;0.10;0.10;;;9.30;99.90;;;;;;5076746;28;20203;-79
2023/02/02 11:44:45;;;;;;;0.10;0.10;;;9.30;99.90;;;;;;5063460;28;20201;-80
2023/02/02 11:47:19;;;;;;;0.10;0.10;;;9.30;99.90;;;;;;5057493;28;20195;-80
2023/02/02 11:49:45;;;;;;;0.10;0.10;;;9.30;99.90;;;;;;5055410;28;20237;-79
2023/02/02 11:52:17;;;;;;;0.10;0.10;;;9.20;99.90;;;;;;5056864;28;21087;-80
2023/02/02 11:54:47;;;;;;;0.10;0.10;;;9.20;99.90;;;;;;5057282;28;20225;-80
2023/02/02 11:57:18;;;;;;;0.10;0.10;;;9.30;99.90;;;;;;5056049;28;20280;-80
2023/02/02 11:59:44;;;;;;;0.10;0.10;;;9.40;99.90;;;;;;5059616;28;20204;-80
2023/02/02 12:02:18;;;;;;;0.10;0.10;;;9.40;99.90;;;;;;5056808;28;20830;-80
2023/02/02 12:04:46;;;;;;;0.10;0.10;;;9.40;99.90;;;;;;5056871;28;20216;-80
2023/02/02 12:07:24;;;;;;;0.10;0.10;;;9.50;99.90;;;;;;5056244;28;20212;-80
2023/02/02 12:09:50;;;;;;;0.10;0.10;;;9.60;99.90;;;;;;5056394;28;20788;-80
2023/02/02 12:12:34;;;;;;;0.10;0.10;;;9.60;99.90;;;;;;5053770;28;20196;-78
2023/02/02 12:15:14;;;;;;;0.10;0.10;;;9.60;99.90;;;;;;5057012;28;20208;-78
2023/02/02 12:18:00;;;;;;;0.10;0.10;;;9.50;99.90;;;;;;5057261;28;20192;-79
2023/02/02 12:20:32;;;;;;;0.10;0.10;;;9.50;99.90;;;;;;5054142;28;20265;-79
2023/02/02 12:23:16;;;;;;;0.10;0.10;;;9.50;99.90;;;;;;5072944;28;20674;-78
2023/02/02 12:26:12;;;;;;;0.10;0.10;;;9.50;99.90;;;;;;5059432;28;20232;-79
2023/02/02 12:28:41;;;;;;;0.10;0.10;;;9.40;99.90;;;;;;5058904;28;20222;-79
2023/02/02 12:31:06;;;;;;;0.10;0.10;;;9.40;99.90;;;;;;5054870;28;20251;-78
2023/02/02 12:33:52;;;;;;;0.10;0.10;;;9.40;99.90;;;;;;5059145;28;20205;-80
2023/02/02 12:36:29;;;;;;;0.10;0.10;;;9.40;99.90;;;;;;5056449;28;20725;-78
2023/02/02 12:39:18;;;;;;;0.10;0.10;;;9.50;99.90;;;;;;5054831;28;20185;-79
2023/02/02 12:41:54;;;;;;;0.10;0.10;;;9.50;99.90;;;;;;5056561;28;20196;-79
2023/02/02 12:44:41;;;;;;;0.10;0.10;;;9.60;99.90;;;;;;5056673;28;20337;-78
2023/02/02 12:47:34;;;;;;;0.10;0.10;;;9.60;99.90;;;;;;5057847;28;20183;-79
2023/02/02 12:50:12;;;;;;;0.10;0.10;;;9.60;99.90;;;;;;5055833;28;20308;-78
2023/02/02 12:52:57;;;;;;;0.10;0.10;;;9.60;99.90;;;;;;5058996;28;20180;-78
2023/02/02 12:55:43;;;;;;;0.10;0.10;;;9.60;99.90;;;;;;5056363;28;20196;-79
2023/02/02 12:58:46;;;;;;;0.10;0.10;;;9.60;99.90;;;;;;5057374;28;20209;-78
2023/02/02 13:01:33;;;;;;;0.10;0.10;;;9.50;99.90;;;;;;5052335;28;20291;-77
2023/02/02 13:04:23;;;;;;;0.10;0.10;;;9.60;99.90;;;;;;5060269;28;20214;-80
2023/02/02 13:07:12;;;;;;;0.10;0.10;;;9.60;99.90;;;;;;5057985;28;20625;-79
2023/02/02 13:10:07;;;;;;;0.10;0.10;;;9.60;99.90;;;;;;5054782;28;20177;-79
2023/02/02 13:12:43;;;;;;;0.10;0.10;;;9.60;99.90;;;;;;5055265;28;20299;-79
2023/02/02 13:15:16;;;;;;;0.10;0.10;;;9.50;99.90;;;;;;5059414;28;20192;-79
2023/02/02 13:17:55;;;;;;;0.10;0.10;;;9.50;99.90;;;;;;5058874;28;20261;-79
2023/02/02 13:20:36;;;;;;;0.10;0.10;;;9.50;99.90;;;;;;5059746;28;20204;-79
2023/02/02 13:23:08;;;;;;;0.10;0.10;;;9.50;99.90;;;;;;5061083;28;20279;-78
2023/02/02 13:25:41;;;;;;;0.10;0.10;;;9.40;99.90;;;;;;5062733;28;20239;-79
2023/02/02 13:28:16;;;;;;;0.10;0.10;;;9.40;99.90;;;;;;5063997;28;20216;-80
2023/02/02 13:30:46;;;;;;;0.10;0.10;;;9.50;99.90;;;;;;5063265;28;20199;-82
2023/02/02 13:33:27;;;;;;;0.10;0.10;;;9.40;99.90;;;;;;5063124;28;20225;-79